Time;durP1;ratioP1;P1;durP2;ratioP2;P2;SDS_P1;SDS_P2;PMS_P1;PMS_P2;Temp;Humidity;BMP_temperature;BMP_pressure;BME280_temperature;BME280_humidity;BME280_pressure;Samples;Min_cycle;Max_cycle;Signal;HPM_P1;HPM_P2
2023/04/23 00:01:52;;;;;;;18.57;16.57;;;14.80;99.90;;;;;;5012230;28;20521;-76
2023/04/23 00:04:21;;;;;;;19.10;17.10;;;14.80;99.90;;;;;;4995288;28;20456;-76
2023/04/23 00:06:47;;;;;;;18.30;16.30;;;14.80;99.90;;;;;;5012878;28;20411;-76
2023/04/23 00:09:14;;;;;;;19.10;17.10;;;14.80;99.90;;;;;;5013112;28;20407;-76
2023/04/23 00:11:40;;;;;;;18.73;16.77;;;14.80;99.90;;;;;;5012916;28;20411;-76
2023/04/23 00:14:06;;;;;;;18.30;16.40;;;14.80;99.90;;;;;;5012280;28;20411;-76
2023/04/23 00:16:32;;;;;;;22.53;17.60;;;14.80;99.90;;;;;;5012722;28;20419;-76
2023/04/23 00:18:58;;;;;;;18.93;16.93;;;14.80;99.90;;;;;;5012230;28;20813;-76
2023/04/23 00:21:23;;;;;;;20.17;17.47;;;14.80;99.90;;;;;;5012933;28;20450;-75
2023/04/23 00:23:49;;;;;;;19.97;18.00;;;14.80;99.90;;;;;;5013257;28;20210;-76
2023/04/23 00:26:17;;;;;;;19.60;17.60;;;14.80;99.90;;;;;;5017074;28;20172;-75
2023/04/23 00:28:43;;;;;;;19.53;17.43;;;14.80;99.90;;;;;;4999206;28;20236;-75
2023/04/23 00:31:08;;;;;;;21.93;18.57;;;14.80;99.90;;;;;;5016102;28;20505;-75
2023/04/23 00:33:34;;;;;;;20.50;18.40;;;14.70;99.90;;;;;;4999100;28;20175;-75
2023/04/23 00:36:00;;;;;;;21.13;18.17;;;14.70;99.90;;;;;;5016033;28;20176;-76
2023/04/23 00:38:26;;;;;;;21.13;18.90;;;14.70;99.90;;;;;;4998618;28;20238;-76
2023/04/23 00:40:51;;;;;;;22.10;18.30;;;14.70;99.90;;;;;;5016021;28;20651;-77
2023/04/23 00:43:18;;;;;;;21.10;18.90;;;14.70;99.90;;;;;;5016536;28;20632;-75
2023/04/23 00:45:44;;;;;;;20.70;18.33;;;14.70;99.90;;;;;;5016438;28;20203;-76
2023/04/23 00:48:10;;;;;;;21.90;18.70;;;14.70;99.90;;;;;;5015830;28;20534;-76
2023/04/23 00:50:36;;;;;;;21.10;18.83;;;14.70;99.90;;;;;;5016341;28;20806;-75
2023/04/23 00:53:02;;;;;;;19.83;17.47;;;14.70;99.90;;;;;;5015731;28;20405;-76
2023/04/23 00:55:28;;;;;;;21.97;19.60;;;14.70;99.90;;;;;;5016277;28;20179;-76
2023/04/23 00:57:54;;;;;;;21.07;18.87;;;14.70;99.90;;;;;;5015652;28;20489;-75
2023/04/23 01:00:20;;;;;;;20.37;18.13;;;14.70;99.90;;;;;;5016178;28;20490;-75
2023/04/23 01:02:48;;;;;;;20.93;18.70;;;14.70;99.90;;;;;;5016134;28;20428;-75
2023/04/23 01:05:16;;;;;;;20.30;18.23;;;14.70;99.90;;;;;;5015189;28;20788;-75
2023/04/23 01:07:43;;;;;;;23.80;19.30;;;14.60;99.90;;;;;;5016142;28;20410;-76
2023/04/23 01:10:10;;;;;;;20.53;17.80;;;14.60;99.90;;;;;;5015677;28;20436;-76
2023/04/23 01:12:35;;;;;;;22.17;18.97;;;14.60;99.90;;;;;;5015968;28;20412;-75
2023/04/23 01:15:04;;;;;;;20.77;18.47;;;14.70;99.90;;;;;;4997758;28;20422;-76
2023/04/23 01:17:31;;;;;;;22.37;19.10;;;14.60;99.90;;;;;;5015616;28;20879;-74
2023/04/23 01:19:56;;;;;;;20.90;18.13;;;14.60;99.90;;;;;;5014957;28;20949;-74
2023/04/23 01:22:25;;;;;;;21.77;19.23;;;14.60;99.90;;;;;;5015802;28;20414;-74
2023/04/23 01:24:51;;;;;;;21.83;19.47;;;14.60;99.90;;;;;;5015590;28;20497;-74
2023/04/23 01:27:19;;;;;;;20.93;18.63;;;14.60;99.90;;;;;;5015607;28;20404;-74
2023/04/23 01:29:46;;;;;;;20.93;18.50;;;14.60;99.90;;;;;;5015650;28;20414;-74
2023/04/23 01:32:12;;;;;;;23.20;18.80;;;14.60;99.90;;;;;;5015001;28;20977;-75
2023/04/23 01:34:39;;;;;;;25.00;19.20;;;14.60;99.90;;;;;;5015630;28;20405;-74
2023/04/23 01:37:05;;;;;;;20.80;18.23;;;14.60;99.90;;;;;;5014593;28;20459;-74
2023/04/23 01:39:30;;;;;;;24.30;19.90;;;14.60;99.90;;;;;;5015135;28;20993;-74
2023/04/23 01:41:57;;;;;;;21.73;19.43;;;14.60;99.90;;;;;;5014808;28;20897;-74
2023/04/23 01:44:22;;;;;;;23.07;19.10;;;14.50;99.90;;;;;;5015250;28;20195;-74
2023/04/23 01:46:48;;;;;;;22.50;19.17;;;14.50;99.90;;;;;;4997782;28;20425;-74
2023/04/23 01:49:14;;;;;;;22.60;19.40;;;14.50;99.90;;;;;;4996865;28;20393;-74
2023/04/23 01:51:42;;;;;;;24.50;19.33;;;14.40;99.90;;;;;;4997407;28;20195;-74
2023/04/23 01:54:07;;;;;;;22.30;19.90;;;14.40;99.90;;;;;;5013984;28;20755;-75
2023/04/23 01:56:34;;;;;;;20.30;18.13;;;14.40;99.90;;;;;;5014763;28;20402;-74
2023/04/23 01:59:00;;;;;;;22.50;18.97;;;14.30;99.90;;;;;;5013661;28;20180;-75
2023/04/23 02:01:41;;;;;;;20.97;18.60;;;14.30;99.90;;;;;;5014692;28;20743;-75
2023/04/23 02:04:06;;;;;;;21.60;19.23;;;14.30;99.90;;;;;;4996637;28;20226;-75
2023/04/23 02:06:32;;;;;;;20.63;18.37;;;14.30;99.90;;;;;;5014749;28;20870;-75
2023/04/23 02:08:58;;;;;;;21.67;19.43;;;14.30;99.90;;;;;;5014162;28;20181;-77
2023/04/23 02:11:23;;;;;;;20.47;18.37;;;14.30;99.90;;;;;;5014519;28;20182;-77
2023/04/23 02:13:49;;;;;;;21.00;17.90;;;14.30;99.90;;;;;;5015041;28;20175;-76
2023/04/23 02:16:15;;;;;;;21.30;18.97;;;14.20;99.90;;;;;;5013414;28;20735;-76
2023/04/23 02:18:41;;;;;;;21.20;18.17;;;14.20;99.90;;;;;;5014743;28;20622;-76
2023/04/23 02:21:07;;;;;;;19.93;17.83;;;14.20;99.90;;;;;;4996075;28;20175;-76
2023/04/23 02:23:33;;;;;;;21.07;18.80;;;14.20;99.90;;;;;;5014286;28;20406;-76
2023/04/23 02:25:58;;;;;;;20.30;18.13;;;14.20;99.90;;;;;;5013438;28;20426;-78
2023/04/23 02:28:24;;;;;;;22.63;19.00;;;14.20;99.90;;;;;;5014027;28;20666;-77
2023/04/23 02:30:50;;;;;;;22.50;18.37;;;14.10;99.90;;;;;;5014170;28;20228;-76
2023/04/23 02:33:15;;;;;;;22.00;18.37;;;14.10;99.90;;;;;;5013327;28;20973;-76
2023/04/23 02:35:41;;;;;;;21.17;18.13;;;14.10;99.90;;;;;;5014087;28;20182;-76
2023/04/23 02:38:07;;;;;;;18.93;16.83;;;14.00;99.90;;;;;;5013237;28;20253;-77
2023/04/23 02:40:33;;;;;;;20.10;16.27;;;14.00;99.90;;;;;;4996581;28;20654;-76
2023/04/23 02:42:58;;;;;;;20.13;17.97;;;13.90;99.90;;;;;;5013308;28;20198;-79
2023/04/23 02:45:24;;;;;;;21.77;16.70;;;13.90;99.90;;;;;;5013839;28;20206;-76
2023/04/23 02:47:52;;;;;;;21.47;18.93;;;13.90;99.90;;;;;;5013371;28;20175;-76
2023/04/23 02:50:18;;;;;;;19.50;17.50;;;13.80;99.90;;;;;;5012965;28;20414;-76
2023/04/23 02:52:43;;;;;;;19.93;17.70;;;13.80;99.90;;;;;;5013753;28;20404;-76
2023/04/23 02:55:09;;;;;;;21.10;18.23;;;13.70;99.90;;;;;;5012841;28;20421;-76
2023/04/23 02:57:36;;;;;;;20.50;17.63;;;13.70;99.90;;;;;;5013705;28;20178;-76
2023/04/23 03:00:05;;;;;;;19.47;17.40;;;13.70;99.90;;;;;;5012937;28;20415;-79
2023/04/23 03:02:31;;;;;;;21.17;18.00;;;13.60;99.90;;;;;;5013666;28;20467;-76
2023/04/23 03:04:57;;;;;;;20.47;18.23;;;13.60;99.90;;;;;;5013154;28;20548;-76
2023/04/23 03:07:23;;;;;;;19.93;17.90;;;13.60;99.90;;;;;;5012485;28;20608;-76
2023/04/23 03:09:48;;;;;;;22.30;18.50;;;13.60;99.90;;;;;;4996034;28;20656;-76
2023/04/23 03:12:14;;;;;;;22.37;19.97;;;13.60;99.90;;;;;;5012863;28;20260;-76
2023/04/23 03:14:40;;;;;;;21.40;18.70;;;13.50;99.90;;;;;;5013538;28;20266;-76
2023/04/23 03:17:06;;;;;;;21.93;19.20;;;13.50;99.90;;;;;;5012255;28;20991;-76
2023/04/23 03:19:32;;;;;;;22.83;18.77;;;13.50;99.90;;;;;;5013309;28;20204;-76
2023/04/23 03:21:58;;;;;;;23.83;18.93;;;13.50;99.90;;;;;;5013230;28;20198;-76
2023/04/23 03:24:23;;;;;;;20.70;18.07;;;13.50;99.90;;;;;;5012085;28;20268;-76
2023/04/23 03:26:49;;;;;;;19.70;17.60;;;13.50;99.90;;;;;;5013195;28;20584;-76
2023/04/23 03:29:15;;;;;;;20.67;18.20;;;13.50;99.90;;;;;;5012686;28;20178;-76
2023/04/23 03:31:40;;;;;;;21.10;17.80;;;13.50;99.90;;;;;;4995489;28;20213;-76
2023/04/23 03:34:09;;;;;;;21.33;17.20;;;13.50;99.90;;;;;;4995137;28;20506;-76
2023/04/23 03:36:35;;;;;;;18.27;16.30;;;13.50;99.90;;;;;;5013071;28;20467;-76
2023/04/23 03:39:01;;;;;;;18.50;16.57;;;13.50;99.90;;;;;;4995152;28;20182;-78
2023/04/23 03:41:27;;;;;;;23.17;17.37;;;13.50;99.90;;;;;;5012791;28;20275;-76
2023/04/23 03:43:52;;;;;;;21.53;19.10;;;13.40;99.90;;;;;;5012778;28;20419;-76
2023/04/23 03:46:18;;;;;;;18.43;16.57;;;13.40;99.90;;;;;;5012061;28;20178;-76
2023/04/23 03:48:44;;;;;;;24.97;18.87;;;13.40;99.90;;;;;;5012832;28;20202;-76
2023/04/23 03:51:12;;;;;;;20.57;18.30;;;13.50;99.90;;;;;;4994374;28;20209;-76
2023/04/23 03:53:37;;;;;;;21.23;17.27;;;13.40;99.90;;;;;;5013005;28;20408;-76
2023/04/23 03:56:03;;;;;;;21.77;19.40;;;13.40;99.90;;;;;;5012570;28;20448;-78
2023/04/23 03:58:29;;;;;;;21.50;17.83;;;13.40;99.90;;;;;;4994139;28;20177;-76
2023/04/23 04:00:54;;;;;;;20.13;17.93;;;13.40;99.90;;;;;;5012598;28;20411;-76
2023/04/23 04:03:20;;;;;;;19.80;17.77;;;13.40;99.90;;;;;;5011390;28;20224;-76
2023/04/23 04:05:46;;;;;;;19.23;17.23;;;13.40;99.90;;;;;;5012576;28;20216;-76
2023/04/23 04:08:12;;;;;;;20.80;18.60;;;13.30;99.90;;;;;;5011726;28;20189;-76
2023/04/23 04:10:37;;;;;;;22.33;18.90;;;13.30;99.90;;;;;;5012633;28;20188;-76
2023/04/23 04:13:03;;;;;;;21.93;18.40;;;13.30;99.90;;;;;;5012208;28;20548;-78
2023/04/23 04:15:29;;;;;;;19.53;17.43;;;13.30;99.90;;;;;;5011856;28;20638;-76
2023/04/23 04:17:55;;;;;;;19.50;17.40;;;13.30;99.90;;;;;;4978692;28;20543;-76
2023/04/23 04:20:20;;;;;;;20.63;17.53;;;13.20;99.90;;;;;;5011604;28;20489;-76
2023/04/23 04:22:46;;;;;;;22.70;18.93;;;13.20;99.90;;;;;;5012539;28;20210;-76
2023/04/23 04:25:13;;;;;;;20.97;18.63;;;13.20;99.90;;;;;;5011533;28;20226;-76
2023/04/23 04:27:40;;;;;;;19.97;17.90;;;13.20;99.90;;;;;;5012309;28;20420;-76
2023/04/23 04:30:07;;;;;;;22.23;18.77;;;13.20;99.90;;;;;;5011774;28;20406;-78
2023/04/23 04:32:34;;;;;;;21.07;18.70;;;13.20;99.90;;;;;;5012460;28;20778;-76
2023/04/23 04:34:59;;;;;;;21.67;19.33;;;13.20;99.90;;;;;;5012322;28;20447;-77
2023/04/23 04:37:26;;;;;;;22.83;20.30;;;13.20;99.90;;;;;;4990363;28;20811;-76
2023/04/23 04:39:53;;;;;;;20.70;17.90;;;13.20;99.90;;;;;;4992722;28;20192;-76
2023/04/23 04:42:19;;;;;;;20.03;17.63;;;13.20;99.90;;;;;;4991864;28;20426;-76
2023/04/23 04:44:44;;;;;;;19.87;17.77;;;13.20;99.90;;;;;;4992569;28;20520;-76
2023/04/23 04:47:12;;;;;;;22.80;19.67;;;13.20;99.90;;;;;;4991805;28;20248;-77
2023/04/23 04:49:38;;;;;;;20.70;17.90;;;13.30;99.90;;;;;;4991440;28;20236;-76
2023/04/23 04:52:03;;;;;;;23.07;19.80;;;13.30;99.90;;;;;;4992583;28;20414;-76
2023/04/23 04:54:29;;;;;;;20.37;18.00;;;13.30;99.90;;;;;;4991611;28;20180;-76
2023/04/23 04:56:55;;;;;;;20.90;18.70;;;13.30;99.90;;;;;;4992581;28;20680;-76
2023/04/23 04:59:21;;;;;;;20.70;18.50;;;13.30;99.90;;;;;;4991665;28;20516;-76
2023/04/23 05:01:47;;;;;;;20.10;18.00;;;13.30;99.90;;;;;;4991401;28;20414;-76
2023/04/23 05:04:13;;;;;;;18.90;17.10;;;13.30;99.90;;;;;;4990435;28;20221;-76
2023/04/23 05:06:38;;;;;;;21.00;18.87;;;13.30;99.90;;;;;;4991276;28;20425;-76
2023/04/23 05:09:04;;;;;;;21.70;18.67;;;13.20;99.90;;;;;;4992404;28;20622;-76
2023/04/23 05:11:30;;;;;;;21.57;18.73;;;13.20;99.90;;;;;;4977842;28;20221;-76
2023/04/23 05:13:56;;;;;;;22.27;18.87;;;13.20;99.90;;;;;;4996160;28;20248;-76
2023/04/23 05:16:23;;;;;;;21.47;18.30;;;13.20;99.90;;;;;;4994065;28;20406;-77
2023/04/23 05:18:51;;;;;;;21.47;18.30;;;13.20;99.90;;;;;;4996033;28;20175;-76
2023/04/23 05:21:18;;;;;;;20.33;17.97;;;13.20;99.90;;;;;;4995402;28;20479;-76
2023/04/23 05:23:44;;;;;;;23.33;20.40;;;13.20;99.90;;;;;;4996065;28;20416;-76
2023/04/23 05:26:10;;;;;;;24.50;21.53;;;13.20;99.90;;;;;;4995275;28;20407;-78
2023/04/23 05:28:36;;;;;;;23.50;20.50;;;13.10;99.90;;;;;;4995845;28;20169;-77
2023/04/23 05:31:02;;;;;;;24.47;19.83;;;13.20;99.90;;;;;;4995837;28;20415;-77
2023/04/23 05:33:27;;;;;;;21.93;19.07;;;13.20;99.90;;;;;;4994708;28;20447;-76
2023/04/23 05:35:54;;;;;;;21.10;18.23;;;13.20;99.90;;;;;;4995686;28;20449;-76
2023/04/23 05:38:19;;;;;;;21.50;19.20;;;13.20;99.90;;;;;;5008581;28;20625;-76
2023/04/23 05:40:45;;;;;;;23.40;20.03;;;13.30;99.90;;;;;;5015224;28;20448;-76
2023/04/23 05:43:11;;;;;;;24.13;21.53;;;13.30;99.90;;;;;;4996686;28;20184;-78
2023/04/23 05:45:37;;;;;;;23.07;19.67;;;13.30;99.90;;;;;;5014946;28;20236;-76
2023/04/23 05:48:03;;;;;;;23.23;20.73;;;13.40;99.90;;;;;;5014974;28;20947;-76
2023/04/23 05:50:29;;;;;;;24.07;20.77;;;13.40;99.90;;;;;;5014182;28;20433;-76
2023/04/23 05:52:55;;;;;;;22.10;19.70;;;13.50;99.90;;;;;;5014970;28;20206;-76
2023/04/23 05:55:22;;;;;;;21.50;19.20;;;13.60;99.90;;;;;;5014103;28;20200;-76
2023/04/23 05:57:48;;;;;;;21.30;18.90;;;13.70;99.90;;;;;;5014780;28;20205;-76
2023/04/23 06:00:15;;;;;;;20.03;17.90;;;13.70;99.90;;;;;;5014002;28;20499;-77
2023/04/23 06:02:41;;;;;;;18.70;16.70;;;13.80;99.90;;;;;;5014636;28;20183;-76
2023/04/23 06:05:07;;;;;;;16.83;15.03;;;13.90;99.90;;;;;;4997067;28;20464;-76
2023/04/23 06:07:33;;;;;;;19.60;17.50;;;14.00;99.90;;;;;;5013848;28;20426;-77
2023/04/23 06:09:59;;;;;;;17.17;15.37;;;14.10;99.90;;;;;;4997277;28;20893;-76
2023/04/23 06:12:25;;;;;;;16.77;14.97;;;14.10;99.90;;;;;;4996194;28;20425;-76
2023/04/23 06:14:54;;;;;;;17.43;15.37;;;14.20;99.90;;;;;;5014490;28;20179;-76
2023/04/23 06:17:19;;;;;;;15.40;13.90;;;14.30;99.90;;;;;;5013911;28;20230;-76
2023/04/23 06:19:45;;;;;;;15.77;14.27;;;14.30;99.90;;;;;;4997019;28;20887;-76
2023/04/23 06:22:11;;;;;;;17.57;14.37;;;14.40;99.90;;;;;;5013068;28;20185;-79
2023/04/23 06:24:37;;;;;;;14.07;12.67;;;14.30;99.90;;;;;;5013851;28;20234;-76
2023/04/23 06:27:02;;;;;;;15.07;13.53;;;14.40;99.90;;;;;;4996789;28;20231;-76
2023/04/23 06:29:28;;;;;;;15.50;12.90;;;14.40;99.90;;;;;;5013374;28;20202;-76
2023/04/23 06:31:57;;;;;;;14.20;12.93;;;14.40;99.90;;;;;;5014286;28;20207;-76
2023/04/23 06:34:23;;;;;;;13.47;12.13;;;14.60;99.90;;;;;;5013097;28;20697;-76
2023/04/23 06:36:50;;;;;;;13.30;12.00;;;14.50;99.90;;;;;;5013818;28;20403;-76
2023/04/23 06:39:16;;;;;;;14.13;12.83;;;14.70;99.90;;;;;;5013425;28;20187;-76
2023/04/23 06:41:42;;;;;;;14.10;12.70;;;14.80;99.90;;;;;;5014269;28;20416;-76
2023/04/23 06:44:08;;;;;;;16.17;14.50;;;14.90;99.90;;;;;;5013848;28;20263;-76
2023/04/23 06:46:34;;;;;;;13.93;12.60;;;15.00;99.90;;;;;;5013077;28;21049;-76
2023/04/23 06:49:00;;;;;;;13.30;12.00;;;15.00;99.90;;;;;;5014198;28;20178;-76
2023/04/23 06:51:26;;;;;;;12.20;11.00;;;15.10;99.90;;;;;;5012954;28;20408;-76
2023/04/23 06:53:54;;;;;;;12.70;11.50;;;15.10;99.90;;;;;;5013821;28;20405;-77
2023/04/23 06:56:20;;;;;;;11.63;10.70;;;15.10;99.90;;;;;;5012879;28;20407;-77
2023/04/23 06:58:46;;;;;;;10.30;9.40;;;15.30;99.90;;;;;;4996131;28;20477;-76
2023/04/23 07:01:12;;;;;;;10.90;10.00;;;15.30;99.90;;;;;;4996150;28;20902;-78
2023/04/23 07:03:40;;;;;;;11.87;10.67;;;15.30;99.90;;;;;;5013097;28;20420;-76
2023/04/23 07:06:06;;;;;;;11.97;10.90;;;15.40;99.90;;;;;;5013419;28;20468;-77
2023/04/23 07:08:32;;;;;;;11.63;10.63;;;15.50;99.90;;;;;;4994974;28;20426;-77
2023/04/23 07:10:57;;;;;;;11.43;10.40;;;15.60;99.90;;;;;;5013457;28;20186;-77
2023/04/23 07:13:23;;;;;;;11.40;10.30;;;15.60;99.90;;;;;;5012590;28;20173;-77
2023/04/23 07:15:49;;;;;;;11.57;10.50;;;15.70;99.90;;;;;;5013397;28;20638;-77
2023/04/23 07:18:15;;;;;;;10.40;9.50;;;15.70;99.90;;;;;;5012544;28;20219;-78
2023/04/23 07:20:41;;;;;;;12.10;10.50;;;15.60;99.90;;;;;;5013060;28;20184;-77
2023/04/23 07:23:06;;;;;;;11.93;10.83;;;15.70;99.90;;;;;;5013188;28;20183;-78
2023/04/23 07:25:32;;;;;;;11.10;10.20;;;15.80;99.90;;;;;;5012067;28;20206;-78
2023/04/23 07:27:58;;;;;;;10.77;9.77;;;15.80;99.90;;;;;;4995456;28;20186;-78
2023/04/23 07:30:25;;;;;;;10.93;10.03;;;15.60;99.90;;;;;;4995097;28;20181;-77
2023/04/23 07:32:52;;;;;;;11.97;10.90;;;15.60;99.90;;;;;;4995840;28;20410;-77
2023/04/23 07:35:18;;;;;;;11.40;10.50;;;15.70;99.90;;;;;;4998137;28;20541;-80
2023/04/23 07:37:43;;;;;;;10.60;9.80;;;15.50;99.90;;;;;;4993324;28;20551;-77
2023/04/23 07:40:09;;;;;;;10.90;9.03;;;15.60;99.90;;;;;;5005324;28;20191;-78
2023/04/23 07:42:38;;;;;;;9.63;8.63;;;15.60;99.90;;;;;;5001517;28;20184;-79
2023/04/23 07:45:05;;;;;;;11.07;10.03;;;15.40;99.90;;;;;;4985105;28;20449;-77
2023/04/23 07:47:30;;;;;;;10.07;9.27;;;15.60;99.90;;;;;;4982568;28;20505;-77
2023/04/23 07:49:56;;;;;;;11.33;10.43;;;15.60;99.90;;;;;;5002285;28;20543;-79
2023/04/23 07:52:22;;;;;;;10.50;9.80;;;15.50;99.90;;;;;;4968009;28;20610;-79
2023/04/23 07:54:48;;;;;;;9.67;8.97;;;15.50;99.90;;;;;;5001039;28;20185;-77
2023/04/23 07:57:13;;;;;;;9.93;8.93;;;15.80;99.90;;;;;;4995138;28;20569;-77
2023/04/23 07:59:39;;;;;;;8.40;7.63;;;16.00;99.90;;;;;;5012176;28;20210;-77
2023/04/23 08:02:05;;;;;;;9.10;8.30;;;16.10;99.90;;;;;;5012419;28;20176;-77
2023/04/23 08:04:31;;;;;;;7.53;6.93;;;16.10;99.90;;;;;;5011913;28;20536;-78
2023/04/23 08:06:57;;;;;;;7.23;6.70;;;16.10;99.90;;;;;;5012645;28;20585;-77
2023/04/23 08:09:23;;;;;;;7.43;6.83;;;16.10;99.90;;;;;;5011672;28;20178;-77
2023/04/23 08:11:49;;;;;;;9.40;7.10;;;16.10;99.90;;;;;;5012575;28;20422;-77
2023/04/23 08:14:15;;;;;;;7.77;7.10;;;16.30;99.90;;;;;;5012596;28;20498;-77
2023/04/23 08:16:41;;;;;;;7.07;6.50;;;16.50;99.90;;;;;;5011831;28;20202;-77
2023/04/23 08:19:06;;;;;;;7.67;7.00;;;16.60;99.90;;;;;;5012370;28;20167;-77
2023/04/23 08:21:32;;;;;;;7.53;6.50;;;16.70;99.90;;;;;;5011667;28;20175;-77
2023/04/23 08:23:58;;;;;;;8.17;7.50;;;16.90;99.90;;;;;;5012265;28;20178;-77
2023/04/23 08:26:24;;;;;;;7.43;6.63;;;17.00;99.90;;;;;;5011439;28;20425;-77
2023/04/23 08:28:50;;;;;;;8.37;7.50;;;17.10;99.90;;;;;;5012192;28;20418;-77
2023/04/23 08:31:16;;;;;;;7.70;7.00;;;17.00;99.90;;;;;;5012224;28;20442;-79
2023/04/23 08:33:42;;;;;;;7.47;6.87;;;17.00;99.90;;;;;;4993969;28;20441;-77
2023/04/23 08:36:08;;;;;;;8.10;7.40;;;17.00;99.90;;;;;;4994500;28;20310;-77
2023/04/23 08:38:34;;;;;;;7.70;7.10;;;17.20;99.90;;;;;;5011494;28;20226;-77
2023/04/23 08:41:04;;;;;;;8.20;7.43;;;17.40;99.90;;;;;;5012542;28;20232;-76
2023/04/23 08:43:43;;;;;;;7.17;6.53;;;17.20;99.90;;;;;;4994041;28;20809;-76
2023/04/23 08:46:12;;;;;;;6.73;6.13;;;17.30;99.90;;;;;;5015689;28;20808;-76
2023/04/23 08:48:40;;;;;;;6.67;6.17;;;17.40;99.90;;;;;;5015010;28;20598;-77
2023/04/23 08:51:10;;;;;;;7.30;6.80;;;17.50;99.90;;;;;;4996671;28;20425;-77
2023/04/23 08:53:37;;;;;;;7.30;6.80;;;17.60;99.90;;;;;;4994716;28;20454;-77
2023/04/23 08:56:05;;;;;;;7.80;7.30;;;17.60;99.90;;;;;;4996761;28;20407;-76
2023/04/23 08:58:32;;;;;;;8.60;7.90;;;17.60;99.90;;;;;;4995840;28;20411;-76
2023/04/23 09:00:58;;;;;;;7.70;7.00;;;17.60;99.90;;;;;;4996480;28;20398;-76
2023/04/23 09:03:25;;;;;;;7.00;6.50;;;17.60;99.90;;;;;;4995368;28;20410;-76
2023/04/23 09:05:52;;;;;;;7.20;6.40;;;17.60;99.90;;;;;;4995334;28;20466;-76
2023/04/23 09:08:20;;;;;;;6.20;5.70;;;17.60;99.90;;;;;;4996428;28;20419;-77
2023/04/23 09:10:45;;;;;;;6.00;5.60;;;17.70;99.90;;;;;;4994469;28;20668;-77
2023/04/23 09:13:12;;;;;;;6.10;5.53;;;17.70;99.90;;;;;;4995936;28;20773;-76
2023/04/23 09:15:44;;;;;;;6.80;6.17;;;17.60;99.90;;;;;;4995426;28;20772;-76
2023/04/23 09:18:09;;;;;;;6.20;5.70;;;17.80;99.90;;;;;;4996020;28;20415;-76
2023/04/23 09:20:36;;;;;;;5.70;5.20;;;17.90;99.90;;;;;;4995255;28;20415;-76
2023/04/23 09:23:07;;;;;;;5.40;5.10;;;18.00;99.90;;;;;;4994817;28;20175;-77
2023/04/23 09:25:32;;;;;;;5.27;4.87;;;18.30;99.90;;;;;;4995577;28;20438;-77
2023/04/23 09:28:00;;;;;;;5.03;4.63;;;18.40;99.90;;;;;;4995893;28;20423;-76
2023/04/23 09:30:26;;;;;;;6.00;4.60;;;18.40;99.90;;;;;;4995118;28;20418;-76
2023/04/23 09:32:52;;;;;;;5.77;5.27;;;18.50;99.90;;;;;;4996110;28;20442;-76
2023/04/23 09:35:19;;;;;;;4.53;4.17;;;18.40;99.70;;;;;;4994591;28;20497;-76
2023/04/23 09:37:51;;;;;;;5.73;5.33;;;18.30;99.90;;;;;;5004227;28;20809;-77
2023/04/23 09:40:19;;;;;;;5.33;4.93;;;18.40;99.90;;;;;;5015188;28;20407;-77
2023/04/23 09:42:49;;;;;;;4.37;4.07;;;18.40;98.50;;;;;;5014566;28;20448;-76
2023/04/23 09:45:17;;;;;;;5.40;5.10;;;18.40;98.70;;;;;;5015070;28;20446;-76
2023/04/23 09:47:51;;;;;;;9.60;5.67;;;18.40;99.90;;;;;;4996935;28;20633;-76
2023/04/23 09:50:18;;;;;;;5.30;4.87;;;18.30;99.20;;;;;;5015245;28;20445;-76
2023/04/23 09:52:44;;;;;;;5.07;4.73;;;18.30;99.90;;;;;;5014176;28;20552;-77
2023/04/23 09:55:09;;;;;;;5.13;4.73;;;18.50;99.90;;;;;;5014866;28;20493;-77
2023/04/23 09:57:40;;;;;;;4.87;4.47;;;18.60;99.50;;;;;;5012552;28;20269;-76
2023/04/23 10:00:28;;;;;;;54.17;33.43;;;18.80;99.90;;;;;;5014653;28;20488;-76
2023/04/23 10:02:53;;;;;;;18.80;14.50;;;19.10;99.30;;;;;;4997546;28;20418;-76
2023/04/23 10:05:21;;;;;;;7.80;7.00;;;19.20;97.50;;;;;;5014865;28;20793;-76
2023/04/23 10:07:48;;;;;;;5.07;4.67;;;19.10;97.30;;;;;;5014208;28;20181;-77
2023/04/23 10:10:14;;;;;;;4.57;4.27;;;19.20;97.10;;;;;;4997186;28;20472;-77
2023/04/23 10:12:44;;;;;;;4.60;4.27;;;19.10;96.10;;;;;;4996807;28;20414;-76
2023/04/23 10:15:11;;;;;;;6.87;4.60;;;18.90;98.20;;;;;;5014571;28;20402;-76
2023/04/23 10:17:38;;;;;;;5.37;4.97;;;19.00;97.70;;;;;;5013806;28;20442;-76
2023/04/23 10:20:08;;;;;;;4.50;3.70;;;18.90;98.00;;;;;;5014373;28;20598;-76
2023/04/23 10:22:36;;;;;;;4.63;4.33;;;19.00;97.10;;;;;;5013774;28;20390;-77
2023/04/23 10:25:08;;;;;;;3.93;3.70;;;19.20;97.70;;;;;;5014437;28;20464;-76
2023/04/23 10:27:38;;;;;;;4.10;3.90;;;18.90;94.60;;;;;;4996423;28;20736;-77
2023/04/23 10:30:06;;;;;;;4.33;4.03;;;18.90;94.60;;;;;;5014386;28;20399;-76
2023/04/23 10:32:33;;;;;;;4.10;3.60;;;18.90;94.90;;;;;;5013823;28;20437;-76
2023/04/23 10:34:59;;;;;;;3.90;3.60;;;18.80;94.10;;;;;;5014380;28;20410;-76
2023/04/23 10:37:25;;;;;;;3.90;3.60;;;18.80;96.00;;;;;;5013494;28;20511;-78
2023/04/23 10:39:54;;;;;;;3.50;3.30;;;18.80;94.00;;;;;;4996800;28;20274;-76
2023/04/23 10:42:21;;;;;;;3.77;3.50;;;18.50;94.00;;;;;;5014249;28;20407;-76
2023/04/23 10:44:47;;;;;;;3.67;3.37;;;18.50;93.80;;;;;;4979581;28;21107;-76
2023/04/23 10:47:16;;;;;;;3.43;3.30;;;18.60;94.40;;;;;;5013982;28;20410;-76
2023/04/23 10:49:43;;;;;;;3.60;3.40;;;18.80;94.30;;;;;;5013269;28;20531;-76
2023/04/23 10:52:14;;;;;;;3.90;3.50;;;18.90;93.50;;;;;;4996584;28;20413;-76
2023/04/23 10:54:41;;;;;;;3.83;3.40;;;18.90;93.30;;;;;;5013170;28;20532;-75
2023/04/23 10:57:09;;;;;;;3.23;3.03;;;18.80;92.50;;;;;;5013872;28;20496;-76
2023/04/23 10:59:40;;;;;;;3.77;3.50;;;18.80;92.20;;;;;;4979075;28;20588;-76
2023/04/23 11:02:05;;;;;;;3.63;3.33;;;18.80;92.10;;;;;;5014015;28;20414;-76
2023/04/23 11:04:33;;;;;;;4.63;3.83;;;18.70;91.00;;;;;;5012738;28;20461;-76
2023/04/23 11:07:10;;;;;;;4.67;4.13;;;18.60;92.50;;;;;;5013178;28;20542;-76
2023/04/23 11:09:46;;;;;;;4.30;3.90;;;18.70;93.50;;;;;;4995374;28;20465;-76
2023/04/23 11:12:28;;;;;;;4.80;4.50;;;18.70;93.60;;;;;;4996139;28;20406;-76
2023/04/23 11:14:55;;;;;;;73.60;55.40;;;18.70;93.10;;;;;;5013789;28;20464;-76
2023/04/23 11:17:43;;;;;;;5.93;5.50;;;18.70;92.90;;;;;;5013343;28;20410;-76
2023/04/23 11:20:17;;;;;;;3.83;3.40;;;18.70;92.90;;;;;;5013117;28;20516;-76
2023/04/23 11:22:45;;;;;;;3.57;3.37;;;18.80;92.50;;;;;;5012779;28;20886;-76
2023/04/23 11:25:18;;;;;;;4.17;3.80;;;18.70;91.10;;;;;;5013103;28;20482;-76
2023/04/23 11:27:45;;;;;;;4.20;3.90;;;18.40;92.00;;;;;;5012413;28;20413;-77
2023/04/23 11:30:16;;;;;;;4.47;4.07;;;18.40;92.30;;;;;;5013214;28;20406;-76
2023/04/23 11:32:47;;;;;;;4.40;4.10;;;18.50;93.10;;;;;;4994981;28;20437;-76
2023/04/23 11:35:18;;;;;;;4.07;3.77;;;18.60;92.70;;;;;;5013068;28;20490;-76
2023/04/23 11:37:46;;;;;;;4.13;3.90;;;18.50;92.30;;;;;;5012153;28;20533;-76
2023/04/23 11:40:19;;;;;;;4.47;4.23;;;18.70;93.10;;;;;;5013060;28;20426;-76
2023/04/23 11:42:50;;;;;;;3.60;3.40;;;18.80;93.50;;;;;;5012112;28;20835;-76
2023/04/23 11:45:19;;;;;;;3.50;3.30;;;18.80;91.40;;;;;;5013085;28;20481;-76
2023/04/23 11:47:46;;;;;;;3.67;3.47;;;18.70;90.20;;;;;;5011967;28;20417;-76
2023/04/23 11:50:18;;;;;;;5.00;4.60;;;18.70;90.50;;;;;;5012909;28;20517;-76
2023/04/23 11:52:44;;;;;;;3.93;3.63;;;18.80;92.10;;;;;;5011873;28;20445;-76
2023/04/23 11:55:11;;;;;;;3.50;3.30;;;18.90;91.30;;;;;;5013017;28;20441;-79
2023/04/23 11:57:42;;;;;;;3.57;3.23;;;19.10;90.20;;;;;;5012094;28;20421;-77
2023/04/23 12:00:16;;;;;;;9.60;8.43;;;19.20;90.80;;;;;;5014360;28;20763;-74
2023/04/23 12:02:52;;;;;;;81.57;68.50;;;19.20;86.10;;;;;;5015845;28;20400;-76
2023/04/23 12:05:20;;;;;;;57.20;41.77;;;19.10;86.60;;;;;;5015332;28;20483;-77
2023/04/23 12:07:53;;;;;;;88.40;66.63;;;19.00;89.00;;;;;;4996849;28;20418;-75
2023/04/23 12:10:20;;;;;;;8.83;8.07;;;19.10;89.60;;;;;;5012886;28;20414;-77
2023/04/23 12:12:52;;;;;;;3.63;3.33;;;19.20;85.70;;;;;;5012224;28;20532;-76
2023/04/23 12:15:19;;;;;;;3.67;3.47;;;19.10;83.30;;;;;;5012453;28;20425;-76
2023/04/23 12:17:50;;;;;;;4.27;3.50;;;19.00;85.00;;;;;;4977893;28;20937;-76
2023/04/23 12:20:19;;;;;;;6.20;4.10;;;18.90;85.20;;;;;;5011609;28;20405;-76
2023/04/23 12:22:46;;;;;;;8.93;7.90;;;18.80;84.90;;;;;;4977781;28;20429;-76
2023/04/23 12:25:12;;;;;;;4.90;4.60;;;18.80;85.60;;;;;;5012457;28;20580;-76
2023/04/23 12:27:44;;;;;;;3.23;3.07;;;18.90;88.10;;;;;;5011747;28;20413;-77
2023/04/23 12:30:10;;;;;;;4.10;3.80;;;18.90;88.00;;;;;;5012524;28;20457;-75
2023/04/23 12:32:37;;;;;;;3.37;3.27;;;18.70;89.90;;;;;;5011607;28;20450;-75